Time;durP1;ratioP1;P1;durP2;ratioP2;P2;SDS_P1;SDS_P2;PMS_P1;PMS_P2;Temp;Humidity;BMP_temperature;BMP_pressure;BME280_temperature;BME280_humidity;BME280_pressure;Samples;Min_cycle;Max_cycle;Signal;HPM_P1;HPM_P2
2022/11/09 00:01:30;;;;;;;5.13;4.10;;;14.20;99.90;;;;;;5035808;28;20433;-72
2022/11/09 00:03:57;;;;;;;5.23;4.07;;;14.30;99.90;;;;;;5035945;28;20236;-72
2022/11/09 00:06:24;;;;;;;4.27;3.87;;;14.40;99.90;;;;;;5036051;28;20417;-72
2022/11/09 00:08:50;;;;;;;7.60;5.17;;;14.50;99.90;;;;;;5035747;28;20448;-72
2022/11/09 00:11:16;;;;;;;7.30;4.47;;;14.40;99.90;;;;;;5035638;28;20472;-72
2022/11/09 00:13:43;;;;;;;6.80;3.70;;;14.50;99.90;;;;;;5035162;28;20228;-72
2022/11/09 00:16:10;;;;;;;6.23;4.13;;;14.50;99.90;;;;;;5036027;28;20773;-71
2022/11/09 00:18:37;;;;;;;3.77;3.43;;;14.50;99.90;;;;;;5035709;28;20412;-72
2022/11/09 00:21:11;;;;;;;4.00;3.60;;;14.50;99.90;;;;;;5035136;28;20539;-72
2022/11/09 00:23:36;;;;;;;6.13;4.37;;;14.50;99.90;;;;;;5032064;28;20412;-71
2022/11/09 00:26:04;;;;;;;5.33;4.30;;;14.40;99.90;;;;;;5034594;28;20420;-71
2022/11/09 00:28:29;;;;;;;3.90;3.50;;;14.40;99.90;;;;;;5035224;28;20173;-72
2022/11/09 00:30:59;;;;;;;7.40;4.57;;;14.40;99.90;;;;;;5035118;28;21120;-71
2022/11/09 00:33:25;;;;;;;4.70;4.13;;;14.30;99.90;;;;;;5033917;28;20275;-71
2022/11/09 00:35:50;;;;;;;6.63;4.60;;;14.30;99.90;;;;;;5035155;28;20415;-71
2022/11/09 00:38:16;;;;;;;4.57;3.60;;;14.40;99.90;;;;;;5035175;28;20656;-72
2022/11/09 00:40:41;;;;;;;3.13;2.83;;;14.30;99.90;;;;;;5035289;28;20224;-71
2022/11/09 00:43:07;;;;;;;2.83;2.57;;;14.20;99.90;;;;;;5034375;28;20213;-72
2022/11/09 00:45:32;;;;;;;6.87;3.03;;;14.40;99.90;;;;;;5034267;28;20182;-71
2022/11/09 00:47:58;;;;;;;3.73;3.00;;;14.50;99.90;;;;;;5034859;28;20188;-71
2022/11/09 00:50:23;;;;;;;3.57;2.77;;;14.40;99.90;;;;;;5035139;28;20195;-71
2022/11/09 00:52:49;;;;;;;3.00;2.70;;;14.40;99.90;;;;;;5035433;28;20204;-72
2022/11/09 00:55:15;;;;;;;3.63;2.53;;;14.50;99.90;;;;;;5033585;28;20190;-72
2022/11/09 00:57:41;;;;;;;4.57;3.23;;;14.40;99.90;;;;;;5034695;28;20596;-73
2022/11/09 01:00:07;;;;;;;2.70;2.50;;;14.50;99.90;;;;;;5034834;28;20198;-72
2022/11/09 01:02:32;;;;;;;8.23;3.23;;;14.50;99.90;;;;;;5034458;28;20337;-72
2022/11/09 01:04:58;;;;;;;5.73;2.80;;;14.60;99.90;;;;;;5034718;28;20505;-72
2022/11/09 01:07:24;;;;;;;2.90;2.60;;;14.60;99.90;;;;;;5034512;28;20227;-71
2022/11/09 01:09:50;;;;;;;10.50;3.50;;;14.70;99.90;;;;;;5032716;28;20919;-71
2022/11/09 01:12:15;;;;;;;3.03;2.60;;;14.60;99.90;;;;;;5034234;28;20418;-71
2022/11/09 01:14:41;;;;;;;2.87;2.60;;;14.60;99.90;;;;;;5034144;28;20204;-71
2022/11/09 01:17:06;;;;;;;3.00;2.70;;;14.70;99.90;;;;;;5034182;28;20179;-72
2022/11/09 01:19:32;;;;;;;3.63;2.47;;;14.80;99.90;;;;;;5036447;28;20173;-71
2022/11/09 01:21:57;;;;;;;3.50;2.40;;;14.80;99.90;;;;;;5034079;28;20178;-72
2022/11/09 01:24:23;;;;;;;3.53;3.20;;;14.80;99.90;;;;;;5034070;28;20638;-72
2022/11/09 01:26:49;;;;;;;6.23;2.90;;;14.70;99.90;;;;;;5033517;28;20174;-72
2022/11/09 01:29:14;;;;;;;3.23;2.60;;;14.80;99.90;;;;;;5034085;28;20184;-71
2022/11/09 01:31:40;;;;;;;2.80;2.37;;;14.70;99.90;;;;;;5033979;28;20220;-71
2022/11/09 01:34:05;;;;;;;4.27;2.73;;;14.80;99.90;;;;;;5034054;28;20299;-72
2022/11/09 01:36:31;;;;;;;3.20;2.60;;;14.80;99.90;;;;;;5034110;28;20168;-71
2022/11/09 01:38:56;;;;;;;3.33;2.50;;;14.80;99.90;;;;;;5033625;28;20188;-72
2022/11/09 01:41:25;;;;;;;4.83;2.90;;;14.80;99.90;;;;;;5033240;28;20201;-72
2022/11/09 01:44:05;;;;;;;3.60;2.73;;;14.60;99.90;;;;;;5013607;28;20173;-72
2022/11/09 01:46:42;;;;;;;3.07;2.73;;;14.80;99.90;;;;;;5014491;28;20463;-71
2022/11/09 01:49:18;;;;;;;5.00;2.50;;;14.80;99.90;;;;;;5014682;28;20472;-72
2022/11/09 01:51:49;;;;;;;3.90;2.40;;;14.80;99.90;;;;;;5012844;28;20437;-72
2022/11/09 01:54:21;;;;;;;4.40;3.00;;;14.80;99.90;;;;;;5012833;28;20483;-70
2022/11/09 01:56:50;;;;;;;2.13;1.97;;;14.80;99.90;;;;;;5014570;28;20389;-72
2022/11/09 01:59:21;;;;;;;3.43;2.63;;;14.80;99.90;;;;;;5013467;28;20401;-72
2022/11/09 02:01:48;;;;;;;2.90;2.60;;;14.80;99.90;;;;;;5014194;28;20853;-71
2022/11/09 02:04:22;;;;;;;2.70;2.50;;;14.80;99.90;;;;;;5013813;28;20406;-72
2022/11/09 02:06:48;;;;;;;2.93;2.47;;;14.80;99.90;;;;;;5014074;28;20490;-72
2022/11/09 02:09:24;;;;;;;3.53;3.00;;;14.70;99.90;;;;;;5014029;28;20426;-71
2022/11/09 02:11:50;;;;;;;2.73;2.50;;;14.70;99.90;;;;;;5017152;28;20435;-71
2022/11/09 02:14:17;;;;;;;4.37;2.90;;;14.80;99.90;;;;;;5033007;28;20450;-72
2022/11/09 02:16:44;;;;;;;4.20;2.80;;;14.50;99.90;;;;;;5032988;28;20641;-72
2022/11/09 02:19:10;;;;;;;4.17;2.90;;;14.60;99.90;;;;;;5033532;28;20417;-71
2022/11/09 02:21:35;;;;;;;2.77;2.57;;;14.40;99.90;;;;;;5033642;28;20430;-71
2022/11/09 02:24:01;;;;;;;3.53;2.90;;;14.40;99.90;;;;;;5033367;28;20178;-71
2022/11/09 02:26:35;;;;;;;3.03;2.73;;;14.50;99.90;;;;;;5033204;28;20177;-72
2022/11/09 02:29:04;;;;;;;3.33;2.47;;;14.50;99.90;;;;;;5031661;28;20170;-71
2022/11/09 02:31:35;;;;;;;2.23;2.03;;;14.40;99.90;;;;;;5032990;28;20466;-71
2022/11/09 02:34:08;;;;;;;3.20;2.43;;;14.60;99.90;;;;;;5033288;28;20524;-71
2022/11/09 02:36:34;;;;;;;3.70;2.60;;;14.70;99.90;;;;;;5033623;28;20890;-72
2022/11/09 02:39:00;;;;;;;3.40;2.50;;;14.70;99.90;;;;;;5033970;28;20455;-72
2022/11/09 02:41:29;;;;;;;2.20;2.00;;;14.90;99.90;;;;;;5033791;28;20439;-72
2022/11/09 02:43:55;;;;;;;3.07;2.57;;;15.00;99.90;;;;;;5032241;28;20553;-72
2022/11/09 02:46:28;;;;;;;3.63;3.33;;;14.80;99.90;;;;;;5033875;28;20969;-71
2022/11/09 02:48:54;;;;;;;4.97;4.10;;;14.70;99.90;;;;;;5034587;28;20745;-72
2022/11/09 02:51:19;;;;;;;5.23;4.10;;;14.50;99.90;;;;;;5037690;28;20427;-72
2022/11/09 02:53:45;;;;;;;4.67;3.23;;;14.70;99.90;;;;;;5037495;28;20244;-71
2022/11/09 02:56:10;;;;;;;5.33;3.00;;;14.60;99.90;;;;;;5037219;28;20182;-71
2022/11/09 02:58:36;;;;;;;4.30;3.40;;;14.60;99.90;;;;;;5037025;28;20171;-72
2022/11/09 03:01:01;;;;;;;5.90;3.60;;;14.60;99.90;;;;;;5037213;28;20187;-72
2022/11/09 03:03:27;;;;;;;5.40;3.57;;;14.70;99.90;;;;;;5037061;28;20216;-72
2022/11/09 03:05:53;;;;;;;4.03;3.50;;;14.90;99.90;;;;;;5036975;28;20441;-72
2022/11/09 03:08:18;;;;;;;3.90;2.77;;;15.00;99.90;;;;;;5037186;28;20207;-70
2022/11/09 03:10:44;;;;;;;3.60;3.00;;;15.00;99.90;;;;;;5036927;28;20192;-71
2022/11/09 03:13:09;;;;;;;4.63;3.00;;;15.00;99.90;;;;;;5037492;28;20181;-72
2022/11/09 03:15:36;;;;;;;5.37;3.67;;;15.00;99.90;;;;;;5035517;28;20184;-72
2022/11/09 03:18:02;;;;;;;6.17;4.33;;;14.90;99.90;;;;;;5036637;28;20790;-70
2022/11/09 03:20:27;;;;;;;4.00;3.30;;;14.80;99.90;;;;;;5036759;28;20437;-71
2022/11/09 03:22:56;;;;;;;6.27;3.30;;;14.60;99.90;;;;;;5036580;28;20184;-72
2022/11/09 03:25:22;;;;;;;3.60;3.30;;;14.40;99.90;;;;;;5036706;28;20177;-71
2022/11/09 03:27:48;;;;;;;5.03;3.30;;;14.50;99.90;;;;;;5036493;28;20490;-71
2022/11/09 03:30:13;;;;;;;6.67;3.20;;;14.60;99.90;;;;;;5056615;22;20210;-73
2022/11/09 03:32:39;;;;;;;10.23;4.60;;;14.70;99.90;;;;;;5016818;28;20259;-73
2022/11/09 03:35:05;;;;;;;5.13;3.73;;;14.50;99.90;;;;;;5016321;28;20247;-74
2022/11/09 03:37:30;;;;;;;4.87;3.67;;;14.40;99.90;;;;;;5016314;28;20171;-74
2022/11/09 03:39:56;;;;;;;5.03;3.67;;;14.40;99.90;;;;;;5016550;28;20406;-74
2022/11/09 03:42:21;;;;;;;12.20;4.67;;;14.50;99.90;;;;;;5034746;28;20177;-74
2022/11/09 03:44:47;;;;;;;5.33;3.23;;;14.40;99.90;;;;;;5035625;28;20231;-74
2022/11/09 03:47:12;;;;;;;3.93;3.00;;;14.30;99.90;;;;;;5033981;28;20261;-73
2022/11/09 03:49:38;;;;;;;3.63;3.33;;;14.30;99.90;;;;;;5016064;28;20185;-74
2022/11/09 03:52:03;;;;;;;5.57;4.30;;;14.30;99.90;;;;;;5014699;28;20230;-73
2022/11/09 03:54:29;;;;;;;5.17;3.77;;;14.30;99.90;;;;;;5015854;28;20269;-75
2022/11/09 03:56:55;;;;;;;5.27;3.90;;;14.20;99.90;;;;;;5015930;28;20169;-73
2022/11/09 03:59:20;;;;;;;5.57;3.80;;;14.20;99.90;;;;;;5015647;28;20174;-74
2022/11/09 04:01:46;;;;;;;4.60;4.00;;;14.10;99.90;;;;;;5015679;28;20611;-74
2022/11/09 04:04:12;;;;;;;4.57;3.40;;;14.10;99.90;;;;;;5016329;28;20195;-74
2022/11/09 04:06:37;;;;;;;5.57;4.00;;;14.10;99.90;;;;;;5015612;28;20483;-75
2022/11/09 04:09:03;;;;;;;5.60;3.97;;;14.00;99.90;;;;;;5015755;28;20202;-74
2022/11/09 04:11:29;;;;;;;4.50;4.07;;;14.00;99.90;;;;;;5015552;28;20191;-75
2022/11/09 04:13:54;;;;;;;5.00;4.00;;;14.00;99.90;;;;;;5033148;28;20241;-75
2022/11/09 04:16:20;;;;;;;5.60;4.30;;;13.90;99.90;;;;;;5035656;28;20182;-75
2022/11/09 04:18:45;;;;;;;5.20;4.70;;;13.90;99.90;;;;;;5035239;28;20236;-75
2022/11/09 04:21:11;;;;;;;4.03;3.63;;;13.90;99.90;;;;;;5033896;28;20236;-75
2022/11/09 04:23:37;;;;;;;4.60;4.20;;;13.90;99.90;;;;;;5035264;28;20166;-75
2022/11/09 04:26:02;;;;;;;4.97;3.40;;;13.90;99.90;;;;;;5035131;28;20173;-75
2022/11/09 04:28:28;;;;;;;4.20;3.80;;;14.00;99.90;;;;;;5034684;28;20178;-75
2022/11/09 04:30:53;;;;;;;3.90;3.50;;;14.00;99.90;;;;;;5034930;28;20288;-75
2022/11/09 04:33:19;;;;;;;4.70;4.20;;;14.00;99.90;;;;;;5035100;28;20177;-75
2022/11/09 04:35:44;;;;;;;8.90;5.20;;;14.00;99.90;;;;;;5034945;28;20165;-75
2022/11/09 04:38:13;;;;;;;7.83;4.87;;;14.00;99.90;;;;;;5035199;28;20169;-75
2022/11/09 04:40:39;;;;;;;4.60;4.13;;;14.00;99.90;;;;;;5035077;28;20258;-75
2022/11/09 04:43:06;;;;;;;5.90;4.10;;;14.00;99.90;;;;;;5033384;28;20425;-75
2022/11/09 04:45:33;;;;;;;5.47;4.57;;;14.00;99.90;;;;;;5035012;28;20181;-75
2022/11/09 04:48:00;;;;;;;4.00;3.70;;;14.00;99.90;;;;;;5034792;28;20417;-75
2022/11/09 04:50:26;;;;;;;5.90;3.90;;;14.00;99.90;;;;;;5035156;28;20428;-75
2022/11/09 04:52:52;;;;;;;4.40;4.00;;;14.00;99.90;;;;;;5034890;28;20909;-75
2022/11/09 04:55:17;;;;;;;5.70;4.00;;;14.00;99.90;;;;;;5033329;28;20198;-75
2022/11/09 04:57:43;;;;;;;3.40;3.10;;;13.90;99.90;;;;;;5034219;28;20684;-75
2022/11/09 05:00:09;;;;;;;4.20;3.83;;;13.80;99.90;;;;;;5034639;28;20175;-75
2022/11/09 05:02:34;;;;;;;8.17;3.60;;;13.70;99.90;;;;;;5034388;28;20167;-75
2022/11/09 05:05:00;;;;;;;5.53;4.50;;;13.50;99.90;;;;;;5034967;28;20405;-75
2022/11/09 05:07:25;;;;;;;5.60;5.00;;;13.40;99.90;;;;;;5034354;28;20174;-75
2022/11/09 05:09:51;;;;;;;6.70;5.30;;;13.20;99.90;;;;;;5034239;28;20258;-75
2022/11/09 05:12:17;;;;;;;5.13;4.63;;;13.20;99.90;;;;;;5033466;28;20282;-75
2022/11/09 05:14:42;;;;;;;4.97;4.57;;;13.00;99.90;;;;;;5034529;28;20198;-75
2022/11/09 05:17:08;;;;;;;5.90;4.53;;;13.20;99.90;;;;;;5034015;28;20189;-76
2022/11/09 05:19:34;;;;;;;4.77;4.00;;;13.30;99.90;;;;;;5035047;28;20260;-74
2022/11/09 05:24:43;;;;;;;5.90;3.90;;;13.60;99.90;;;;;;5034545;28;20638;-75
2022/11/09 05:27:09;;;;;;;4.70;3.57;;;13.70;99.90;;;;;;5033873;28;20439;-75
2022/11/09 05:29:34;;;;;;;4.50;4.00;;;13.70;99.90;;;;;;5033870;28;20543;-75
2022/11/09 05:32:00;;;;;;;6.10;4.17;;;13.80;99.90;;;;;;5033875;28;20226;-74
2022/11/09 05:34:26;;;;;;;27.53;21.40;;;13.60;99.90;;;;;;5034097;28;20676;-74
2022/11/09 05:36:51;;;;;;;5.47;4.33;;;13.60;99.90;;;;;;5033758;28;20179;-75
2022/11/09 05:39:17;;;;;;;3.80;3.50;;;13.30;99.90;;;;;;5045058;28;20259;-74
2022/11/09 05:41:42;;;;;;;7.97;6.60;;;13.30;99.90;;;;;;5032432;28;20230;-74
2022/11/09 05:44:08;;;;;;;8.80;6.97;;;13.50;99.90;;;;;;5031484;28;20178;-74
2022/11/09 05:46:33;;;;;;;8.57;7.63;;;13.60;99.90;;;;;;5034029;28;20186;-75
2022/11/09 05:48:59;;;;;;;8.37;6.37;;;13.70;99.90;;;;;;5034325;28;20198;-74
2022/11/09 05:51:24;;;;;;;6.03;5.43;;;13.70;99.90;;;;;;5033984;28;20195;-75
2022/11/09 05:53:50;;;;;;;6.40;4.60;;;13.70;99.90;;;;;;5033573;28;20233;-74
2022/11/09 05:56:15;;;;;;;5.20;4.17;;;13.60;99.90;;;;;;5033875;28;20172;-74
2022/11/09 05:58:42;;;;;;;4.40;4.10;;;13.60;99.90;;;;;;5031379;28;20536;-74
2022/11/09 06:01:17;;;;;;;4.57;4.17;;;13.70;99.90;;;;;;5024278;28;20204;-73
2022/11/09 06:03:43;;;;;;;4.10;3.80;;;13.70;99.90;;;;;;5027679;28;20405;-74
2022/11/09 06:06:11;;;;;;;4.97;4.47;;;13.70;99.90;;;;;;5033377;28;20770;-75
2022/11/09 06:08:36;;;;;;;4.90;4.00;;;13.70;99.90;;;;;;5022781;28;20215;-74
2022/11/09 06:11:08;;;;;;;4.80;4.10;;;13.70;99.90;;;;;;5031985;28;20433;-74
2022/11/09 06:13:34;;;;;;;4.60;4.20;;;13.70;99.90;;;;;;5032558;28;20730;-74
2022/11/09 06:16:02;;;;;;;4.77;4.37;;;13.70;99.90;;;;;;5033238;28;20412;-74
2022/11/09 06:18:29;;;;;;;6.73;6.07;;;13.70;99.90;;;;;;5033343;28;20174;-75
2022/11/09 06:20:58;;;;;;;7.77;6.30;;;13.70;99.90;;;;;;5033026;28;20947;-74
2022/11/09 06:23:24;;;;;;;7.97;7.17;;;13.80;99.90;;;;;;5032648;28;20484;-74
2022/11/09 06:26:05;;;;;;;7.27;6.43;;;13.80;99.90;;;;;;5032771;28;20431;-75
2022/11/09 06:28:32;;;;;;;7.30;6.63;;;13.70;99.90;;;;;;5032726;28;20397;-74
2022/11/09 06:31:02;;;;;;;6.90;6.30;;;13.70;99.90;;;;;;5033170;28;20803;-74
2022/11/09 06:33:33;;;;;;;10.20;7.77;;;13.80;99.90;;;;;;5043850;28;20493;-75
2022/11/09 06:35:58;;;;;;;8.00;7.00;;;13.80;99.90;;;;;;5033043;28;20401;-75
2022/11/09 06:38:27;;;;;;;7.73;6.97;;;13.90;99.90;;;;;;5031804;28;20425;-75
2022/11/09 06:40:54;;;;;;;7.83;7.03;;;13.80;99.90;;;;;;5033151;28;20190;-75
2022/11/09 06:43:20;;;;;;;9.60;6.50;;;13.90;99.90;;;;;;5031427;28;20760;-75
2022/11/09 06:45:46;;;;;;;7.57;6.77;;;13.90;99.90;;;;;;5033279;28;20407;-75
2022/11/09 06:48:12;;;;;;;9.80;7.80;;;13.90;99.90;;;;;;5032405;28;20825;-76
2022/11/09 06:50:37;;;;;;;7.93;6.97;;;14.00;99.90;;;;;;5033558;28;20245;-75
2022/11/09 06:53:06;;;;;;;7.37;6.67;;;13.90;99.90;;;;;;5033517;28;20167;-75
2022/11/09 06:55:33;;;;;;;10.87;6.20;;;14.00;99.90;;;;;;5033452;28;20194;-75
2022/11/09 06:57:59;;;;;;;5.67;5.17;;;13.70;99.90;;;;;;5033340;28;20402;-75
2022/11/09 07:00:26;;;;;;;4.00;3.63;;;13.50;99.90;;;;;;5033026;28;20416;-75
2022/11/09 07:02:52;;;;;;;4.13;3.70;;;13.50;99.90;;;;;;5033028;28;20429;-75
2022/11/09 07:05:18;;;;;;;5.73;4.13;;;13.50;99.90;;;;;;5034211;28;20411;-75
2022/11/09 07:07:44;;;;;;;4.57;4.00;;;13.70;99.90;;;;;;5031712;28;20795;-75
2022/11/09 07:10:10;;;;;;;5.00;3.80;;;13.80;99.90;;;;;;5032955;28;20422;-75
2022/11/09 07:12:36;;;;;;;4.70;4.30;;;13.70;99.90;;;;;;5030574;28;20229;-75
2022/11/09 07:15:03;;;;;;;5.37;4.60;;;13.90;99.90;;;;;;5032524;28;20879;-75
2022/11/09 07:17:30;;;;;;;7.97;6.27;;;14.00;99.90;;;;;;5034048;28;20168;-75
2022/11/09 07:19:56;;;;;;;10.20;5.90;;;14.00;99.90;;;;;;5032867;28;20771;-75
2022/11/09 07:22:21;;;;;;;9.13;7.17;;;13.80;99.90;;;;;;5033436;28;20407;-75
2022/11/09 07:24:47;;;;;;;8.37;7.30;;;13.50;99.90;;;;;;5032464;28;20171;-75
2022/11/09 07:27:12;;;;;;;9.10;6.60;;;13.10;99.90;;;;;;5032694;28;20174;-75
2022/11/09 07:29:38;;;;;;;8.60;5.47;;;12.90;99.90;;;;;;5032632;28;20174;-75
2022/11/09 07:32:04;;;;;;;7.77;6.23;;;12.90;99.90;;;;;;5034854;28;20295;-76
2022/11/09 07:34:29;;;;;;;6.37;5.73;;;13.00;99.90;;;;;;5036850;28;20244;-75
2022/11/09 07:36:55;;;;;;;6.10;5.40;;;13.30;99.90;;;;;;5035729;28;20225;-75
2022/11/09 07:39:20;;;;;;;8.10;6.00;;;13.50;99.90;;;;;;5036361;28;20179;-75
2022/11/09 07:41:49;;;;;;;6.43;5.87;;;13.60;99.90;;;;;;5037437;28;20225;-76
2022/11/09 07:44:17;;;;;;;5.17;4.50;;;13.70;99.90;;;;;;5035644;28;20203;-75
2022/11/09 07:46:46;;;;;;;5.23;4.40;;;13.70;99.90;;;;;;5036341;28;20422;-75
2022/11/09 07:49:12;;;;;;;7.13;4.27;;;13.70;99.90;;;;;;5036336;28;20892;-74
2022/11/09 07:51:39;;;;;;;6.37;5.77;;;13.90;99.90;;;;;;5034752;28;20788;-75
2022/11/09 07:54:04;;;;;;;4.60;4.20;;;13.90;99.90;;;;;;5036499;28;20461;-75
2022/11/09 07:56:30;;;;;;;6.47;5.87;;;14.10;99.90;;;;;;5036257;28;20847;-75
2022/11/09 07:58:55;;;;;;;7.57;6.87;;;14.20;99.90;;;;;;5035373;28;20258;-74
2022/11/09 08:01:21;;;;;;;7.77;7.07;;;14.10;99.90;;;;;;5035944;28;20604;-76
2022/11/09 08:03:47;;;;;;;8.53;7.63;;;14.00;99.90;;;;;;5035750;28;20177;-75
2022/11/09 08:06:12;;;;;;;6.03;5.40;;;14.10;99.90;;;;;;5035661;28;20169;-75
2022/11/09 08:08:38;;;;;;;5.30;4.80;;;14.10;99.90;;;;;;5035703;28;20168;-75
2022/11/09 08:11:04;;;;;;;4.10;3.70;;;14.20;99.90;;;;;;5035808;28;20191;-76
2022/11/09 08:13:29;;;;;;;6.60;4.00;;;14.30;99.90;;;;;;5035256;28;20182;-75
2022/11/09 08:15:55;;;;;;;4.00;3.60;;;14.40;99.90;;;;;;5035815;28;20177;-74
2022/11/09 08:18:21;;;;;;;6.53;5.30;;;14.30;99.90;;;;;;5035777;28;20604;-75
2022/11/09 08:20:47;;;;;;;4.57;4.07;;;14.30;99.90;;;;;;5035497;28;20242;-74
2022/11/09 08:23:15;;;;;;;4.23;3.73;;;14.30;99.90;;;;;;5035936;28;20410;-75
2022/11/09 08:25:41;;;;;;;3.90;3.47;;;14.40;99.90;;;;;;5035340;28;20466;-77
2022/11/09 08:28:07;;;;;;;3.97;3.60;;;14.40;99.90;;;;;;5035429;28;20777;-76
2022/11/09 08:30:34;;;;;;;5.07;3.53;;;14.40;99.90;;;;;;5035820;28;20214;-75
2022/11/09 08:33:01;;;;;;;3.80;3.50;;;14.30;99.90;;;;;;5035032;28;20411;-75
2022/11/09 08:35:27;;;;;;;3.17;2.87;;;14.20;99.90;;;;;;5035606;28;20452;-75
2022/11/09 08:37:53;;;;;;;3.80;3.50;;;14.10;99.90;;;;;;5036078;28;20900;-75
2022/11/09 08:40:22;;;;;;;3.70;3.30;;;14.00;99.90;;;;;;5035710;28;20776;-75
2022/11/09 08:42:48;;;;;;;3.47;3.10;;;14.10;99.90;;;;;;5032742;28;20438;-75
2022/11/09 08:45:14;;;;;;;3.97;3.47;;;14.20;99.90;;;;;;5035474;28;20413;-75
2022/11/09 08:47:40;;;;;;;3.37;3.00;;;14.20;99.90;;;;;;5033909;28;20940;-75
2022/11/09 08:50:09;;;;;;;3.23;2.93;;;14.20;99.90;;;;;;5034698;28;20408;-75
2022/11/09 08:52:34;;;;;;;2.93;2.70;;;14.20;99.90;;;;;;5035039;28;20180;-76
2022/11/09 08:55:00;;;;;;;3.80;3.40;;;14.10;99.90;;;;;;5034944;28;20510;-77
2022/11/09 08:57:27;;;;;;;4.80;3.53;;;14.00;99.90;;;;;;5034976;28;20169;-75
2022/11/09 08:59:52;;;;;;;2.87;2.60;;;14.00;99.90;;;;;;5031184;28;20465;-76
2022/11/09 09:02:18;;;;;;;3.57;3.00;;;14.00;99.90;;;;;;5023389;28;20920;-76
2022/11/09 09:04:43;;;;;;;4.23;2.73;;;14.20;99.90;;;;;;5014891;28;20522;-75
2022/11/09 09:07:09;;;;;;;3.53;2.57;;;14.30;99.90;;;;;;5015085;28;20179;-75
2022/11/09 09:09:37;;;;;;;5.30;4.80;;;14.30;99.90;;;;;;5015757;28;20189;-74
2022/11/09 09:12:03;;;;;;;4.53;3.93;;;14.30;99.90;;;;;;5015017;28;20445;-74
2022/11/09 09:14:29;;;;;;;4.97;4.47;;;14.30;99.90;;;;;;5034133;28;20488;-74
2022/11/09 09:16:54;;;;;;;3.23;2.77;;;14.30;99.90;;;;;;5034389;28;20486;-77
2022/11/09 09:19:21;;;;;;;2.70;2.23;;;14.50;99.90;;;;;;5034761;28;20638;-75
2022/11/09 09:21:46;;;;;;;2.73;2.30;;;14.50;99.90;;;;;;5034397;28;20193;-76
2022/11/09 09:24:12;;;;;;;2.83;2.23;;;14.60;99.90;;;;;;5034634;28;20418;-75
2022/11/09 09:26:38;;;;;;;2.87;2.20;;;14.80;99.90;;;;;;5034425;28;20204;-76
2022/11/09 09:29:03;;;;;;;2.13;1.93;;;14.90;99.90;;;;;;5033820;28;20229;-74
2022/11/09 09:31:29;;;;;;;3.73;2.23;;;14.90;99.90;;;;;;5034465;28;20213;-74
2022/11/09 09:33:55;;;;;;;2.10;1.43;;;14.70;99.90;;;;;;5034188;28;20638;-74
2022/11/09 09:36:23;;;;;;;1.70;1.60;;;14.70;99.90;;;;;;5034158;28;20170;-75
2022/11/09 09:38:53;;;;;;;1.67;1.10;;;14.80;99.90;;;;;;5033984;28;20282;-75
2022/11/09 09:41:36;;;;;;;1.47;1.10;;;14.70;99.90;;;;;;5034011;28;20421;-74
2022/11/09 09:44:16;;;;;;;2.00;1.60;;;14.70;99.90;;;;;;5033553;28;20549;-74
2022/11/09 09:46:56;;;;;;;1.73;1.60;;;15.00;99.90;;;;;;5034311;28;20495;-75
2022/11/09 09:49:28;;;;;;;1.20;1.10;;;15.00;99.90;;;;;;5034240;28;20423;-75
2022/11/09 09:52:12;;;;;;;1.93;1.57;;;15.00;99.90;;;;;;5034010;28;20487;-75
2022/11/09 09:54:47;;;;;;;0.97;0.87;;;15.00;99.90;;;;;;5033742;28;20453;-75
2022/11/09 09:57:19;;;;;;;1.60;1.30;;;14.90;99.90;;;;;;5034227;28;20381;-76
2022/11/09 09:59:51;;;;;;;1.87;1.30;;;15.20;99.90;;;;;;5034039;28;20397;-76
2022/11/09 10:02:35;;;;;;;2.80;1.17;;;15.10;99.90;;;;;;5033978;28;20421;-76
2022/11/09 10:05:06;;;;;;;2.63;1.43;;;15.20;99.90;;;;;;5035310;28;20771;-77
2022/11/09 10:07:58;;;;;;;2.60;1.50;;;15.30;99.90;;;;;;5034289;28;20393;-74
2022/11/09 10:10:50;;;;;;;4.83;3.90;;;15.70;99.90;;;;;;5033671;28;20417;-75
2022/11/09 10:13:26;;;;;;;2.97;1.50;;;15.60;99.90;;;;;;5033308;28;20406;-75
2022/11/09 10:15:54;;;;;;;2.93;2.20;;;15.90;99.90;;;;;;5033824;28;20393;-75
2022/11/09 10:18:29;;;;;;;5.00;2.10;;;15.60;99.90;;;;;;5033329;28;20961;-75
2022/11/09 10:20:57;;;;;;;2.83;1.80;;;15.60;99.90;;;;;;5033792;28;20927;-75
2022/11/09 10:23:43;;;;;;;1.70;1.60;;;15.80;99.90;;;;;;5033641;28;20394;-75
2022/11/09 10:26:19;;;;;;;2.73;2.10;;;15.70;99.90;;;;;;5033467;28;20379;-76
2022/11/09 10:28:50;;;;;;;4.20;1.83;;;15.80;99.90;;;;;;5032953;28;20440;-76
2022/11/09 10:31:19;;;;;;;2.40;1.60;;;15.70;99.90;;;;;;5033211;28;20530;-76
2022/11/09 10:33:48;;;;;;;2.00;1.73;;;16.00;99.90;;;;;;5033560;28;21022;-76
2022/11/09 10:36:22;;;;;;;1.73;1.60;;;16.20;99.90;;;;;;5033389;28;20496;-77
2022/11/09 10:38:50;;;;;;;2.27;1.47;;;16.40;99.90;;;;;;5033732;28;20436;-76
2022/11/09 10:41:39;;;;;;;2.23;1.67;;;16.10;99.90;;;;;;5033437;28;20521;-76
2022/11/09 10:44:11;;;;;;;1.73;1.40;;;16.40;99.90;;;;;;5031922;28;20425;-76
2022/11/09 10:47:01;;;;;;;2.50;1.60;;;16.60;99.90;;;;;;5033141;28;20869;-76
2022/11/09 10:49:27;;;;;;;4.53;2.80;;;17.00;99.90;;;;;;5032991;28;20493;-75
2022/11/09 10:51:53;;;;;;;4.00;3.37;;;17.30;99.90;;;;;;5033129;28;20879;-74
2022/11/09 10:54:26;;;;;;;3.40;2.67;;;17.00;99.90;;;;;;5033175;28;20191;-74
2022/11/09 10:57:14;;;;;;;2.53;2.10;;;17.20;99.90;;;;;;5033476;28;20194;-75
2022/11/09 10:59:46;;;;;;;2.30;1.77;;;17.30;99.90;;;;;;5034573;28;20936;-75
2022/11/09 11:02:38;;;;;;;2.13;1.63;;;17.40;99.90;;;;;;5033519;28;20832;-74
2022/11/09 11:05:03;;;;;;;2.17;1.60;;;17.30;99.90;;;;;;5027148;28;20449;-74
2022/11/09 11:07:29;;;;;;;1.73;1.60;;;17.40;99.90;;;;;;5033190;28;20399;-75
2022/11/09 11:09:57;;;;;;;3.83;2.13;;;17.60;99.90;;;;;;5032169;28;20245;-76
2022/11/09 11:12:23;;;;;;;2.20;2.00;;;17.60;99.90;;;;;;5037912;28;20233;-75
2022/11/09 11:14:48;;;;;;;2.20;1.97;;;17.60;99.90;;;;;;5037427;28;20449;-75
2022/11/09 11:17:33;;;;;;;2.57;1.90;;;17.80;99.90;;;;;;5038103;28;20578;-76
2022/11/09 11:20:22;;;;;;;1.93;1.60;;;18.10;99.90;;;;;;5038072;28;20206;-75
2022/11/09 11:22:48;;;;;;;2.27;2.07;;;17.90;99.90;;;;;;5037404;28;20424;-76
2022/11/09 11:25:19;;;;;;;2.70;1.50;;;18.00;99.90;;;;;;5036703;28;20410;-75
2022/11/09 11:27:57;;;;;;;1.90;1.80;;;17.70;99.90;;;;;;5037392;28;20260;-76
2022/11/09 11:30:27;;;;;;;1.93;1.80;;;17.80;99.90;;;;;;5036393;28;20442;-76
2022/11/09 11:32:57;;;;;;;3.70;2.10;;;18.00;99.90;;;;;;5037626;28;20467;-76
2022/11/09 11:35:35;;;;;;;2.13;1.93;;;17.80;99.90;;;;;;5037459;28;20788;-76
2022/11/09 11:38:24;;;;;;;2.33;1.90;;;17.70;99.90;;;;;;5038205;28;20744;-76
2022/11/09 11:41:23;;;;;;;2.30;1.90;;;17.80;99.90;;;;;;5038029;28;20464;-75
2022/11/09 11:44:11;;;;;;;3.50;2.43;;;17.90;99.90;;;;;;5036012;28;20791;-75
2022/11/09 11:46:44;;;;;;;4.10;2.90;;;17.60;99.90;;;;;;5039604;28;20378;-75
2022/11/09 11:49:22;;;;;;;2.47;2.10;;;17.50;99.90;;;;;;5040902;28;20473;-75
2022/11/09 11:52:15;;;;;;;3.30;2.77;;;17.50;99.90;;;;;;5039098;28;20974;-74
2022/11/09 11:55:00;;;;;;;8.17;2.80;;;17.50;99.90;;;;;;5045285;28;20433;-74
2022/11/09 11:58:07;;;;;;;3.13;2.10;;;17.50;99.90;;;;;;5040175;28;20414;-75
2022/11/09 12:00:44;;;;;;;3.10;2.23;;;17.40;99.90;;;;;;5045221;28;20452;-76
2022/11/09 12:03:26;;;;;;;3.13;2.47;;;17.10;99.90;;;;;;5040419;28;20391;-76
2022/11/09 12:06:14;;;;;;;3.80;2.67;;;17.40;99.90;;;;;;5040744;28;20466;-78
2022/11/09 12:08:51;;;;;;;3.13;2.60;;;17.40;99.90;;;;;;5040866;28;20383;-76
2022/11/09 12:11:45;;;;;;;2.70;2.50;;;17.20;99.90;;;;;;5040390;28;20442;-77
2022/11/09 12:14:20;;;;;;;3.30;2.30;;;17.10;99.90;;;;;;5038109;28;20572;-74
2022/11/09 12:16:45;;;;;;;3.63;3.10;;;17.30;99.90;;;;;;5032516;28;20390;-74
2022/11/09 12:19:16;;;;;;;5.13;3.07;;;17.20;99.90;;;;;;5016470;28;20476;-75
2022/11/09 12:22:08;;;;;;;3.10;2.43;;;17.10;99.90;;;;;;5026807;28;20187;-75
2022/11/09 12:24:58;;;;;;;2.60;2.30;;;17.40;99.90;;;;;;5012278;28;20480;-75
2022/11/09 12:28:03;;;;;;;2.17;1.97;;;17.40;99.90;;;;;;5035595;28;20397;-76
2022/11/09 12:30:46;;;;;;;2.03;1.83;;;17.20;99.90;;;;;;5035238;28;20457;-74
2022/11/09 12:33:19;;;;;;;4.03;2.70;;;17.30;99.90;;;;;;5035673;28;20398;-76
2022/11/09 12:35:58;;;;;;;2.60;2.07;;;17.40;99.90;;;;;;5034718;28;20439;-74
2022/11/09 12:38:33;;;;;;;3.17;1.90;;;17.40;99.90;;;;;;5035674;28;20444;-76
2022/11/09 12:41:09;;;;;;;2.20;2.00;;;17.50;99.90;;;;;;5035441;28;20421;-76
2022/11/09 12:43:50;;;;;;;2.63;1.70;;;17.70;99.90;;;;;;5033765;28;20492;-74
2022/11/09 12:46:19;;;;;;;3.20;2.20;;;17.90;99.90;;;;;;5035349;28;20432;-74
2022/11/09 12:48:47;;;;;;;2.90;1.70;;;18.00;99.90;;;;;;5035453;28;20487;-76
2022/11/09 12:51:13;;;;;;;3.37;1.87;;;18.20;99.90;;;;;;5036102;28;20903;-77
2022/11/09 12:53:39;;;;;;;2.30;2.10;;;18.20;99.90;;;;;;5034465;28;20933;-73
2022/11/09 12:56:23;;;;;;;1.80;1.60;;;18.20;99.90;;;;;;5034692;28;20394;-75
2022/11/09 12:58:49;;;;;;;2.17;1.60;;;18.10;99.90;;;;;;5034523;28;20191;-77